createdAt,value
2024-04-10T00:01:51.392Z,5.53
2024-04-10T00:04:19.382Z,5.78
2024-04-10T00:06:46.882Z,8.70
2024-04-10T00:09:14.719Z,7.32
2024-04-10T00:11:42.223Z,9.02
2024-04-10T00:14:10.215Z,8.70
2024-04-10T00:16:37.703Z,8.20
2024-04-10T00:19:08.482Z,6.55
2024-04-10T00:21:36.909Z,6.80
2024-04-10T00:24:04.988Z,7.45
2024-04-10T00:26:32.588Z,6.35
2024-04-10T00:29:00.556Z,6.63
2024-04-10T00:31:28.303Z,6.15
2024-04-10T00:33:56.335Z,6.82
2024-04-10T00:36:23.794Z,7.18
2024-04-10T00:38:52.224Z,6.28
2024-04-10T00:41:19.693Z,5.25
2024-04-10T00:43:47.812Z,5.60
2024-04-10T00:46:21.074Z,6.05
2024-04-10T00:48:51.189Z,6.13
2024-04-10T00:51:20.250Z,5.65
2024-04-10T00:53:49.009Z,6.53
2024-04-10T00:58:45.382Z,5.80
2024-04-10T01:01:14.514Z,5.65
2024-04-10T01:03:42.835Z,5.65
2024-04-10T01:06:11.421Z,4.90
2024-04-10T01:08:40.629Z,5.60
2024-04-10T01:11:09.900Z,5.20
2024-04-10T01:13:38.398Z,5.00
2024-04-10T01:16:06.644Z,4.70
2024-04-10T01:18:34.576Z,5.03
2024-04-10T01:21:02.005Z,4.88
2024-04-10T01:23:29.878Z,4.97
2024-04-10T01:25:57.439Z,5.65
2024-04-10T01:28:25.253Z,5.13
2024-04-10T01:30:53.128Z,5.43
2024-04-10T01:33:21.050Z,5.18
2024-04-10T01:35:48.630Z,5.68
2024-04-10T01:38:16.417Z,4.80
2024-04-10T01:40:45.481Z,5.22
2024-04-10T01:43:13.272Z,4.78
2024-04-10T01:45:41.629Z,5.40
2024-04-10T01:48:09.762Z,5.63
2024-04-10T01:50:37.359Z,5.35
2024-04-10T01:53:05.504Z,5.25
2024-04-10T01:55:33.134Z,5.07
2024-04-10T01:58:00.964Z,5.43
2024-04-10T02:00:28.952Z,4.97
2024-04-10T02:02:56.786Z,5.22
2024-04-10T02:05:24.311Z,5.43
2024-04-10T02:07:52.204Z,5.57
2024-04-10T02:10:19.591Z,5.80
2024-04-10T02:12:47.401Z,5.25
2024-04-10T02:15:14.951Z,5.05
2024-04-10T02:17:42.958Z,5.30
2024-04-10T02:20:11.689Z,5.55
2024-04-10T02:22:43.826Z,5.00
2024-04-10T02:25:11.223Z,4.95
2024-04-10T02:27:39.129Z,5.88
2024-04-10T02:30:08.279Z,5.63
2024-04-10T02:32:36.215Z,5.13
2024-04-10T02:35:03.793Z,5.60
2024-04-10T02:37:31.584Z,6.72
2024-04-10T02:40:00.219Z,5.65
2024-04-10T02:42:28.176Z,5.28
2024-04-10T02:44:55.659Z,6.72
2024-04-10T02:47:24.038Z,6.40
2024-04-10T02:49:51.731Z,5.63
2024-04-10T02:52:19.698Z,6.32
2024-04-10T02:54:47.091Z,6.72
2024-04-10T02:57:15.299Z,7.28
2024-04-10T02:59:43.149Z,8.35
2024-04-10T03:02:11.632Z,8.75
2024-04-10T03:04:39.327Z,8.95
2024-04-10T03:07:07.252Z,8.45
2024-04-10T03:09:34.895Z,9.35
2024-04-10T03:12:02.770Z,9.57
2024-04-10T03:14:33.100Z,9.35
2024-04-10T03:17:01.158Z,9.50
2024-04-10T03:19:30.313Z,9.43
2024-04-10T03:21:58.192Z,10.05
2024-04-10T03:24:25.555Z,10.70
2024-04-10T03:26:53.310Z,9.60
2024-04-10T03:29:20.801Z,10.00
2024-04-10T03:31:48.708Z,10.77
2024-04-10T03:34:16.442Z,10.73
2024-04-10T03:36:45.179Z,10.98
2024-04-10T03:39:13.199Z,11.23
2024-04-10T03:41:41.103Z,13.00
2024-04-10T03:44:08.857Z,13.07
2024-04-10T03:46:36.687Z,13.85
2024-04-10T03:49:04.118Z,13.30
2024-04-10T03:51:31.961Z,13.20
2024-04-10T03:53:59.292Z,12.85
2024-04-10T03:56:27.030Z,12.75
2024-04-10T03:58:54.512Z,10.55
2024-04-10T04:01:22.546Z,10.40
2024-04-10T04:03:50.261Z,7.88
2024-04-10T04:06:18.105Z,6.07
2024-04-10T04:08:45.524Z,6.40
2024-04-10T04:11:13.367Z,5.22
2024-04-10T04:13:40.835Z,5.30
2024-04-10T04:16:09.373Z,5.35
2024-04-10T04:18:38.029Z,5.43
2024-04-10T04:21:06.401Z,5.50
2024-04-10T04:23:34.410Z,4.90
2024-04-10T04:26:02.335Z,5.10
2024-04-10T04:28:29.803Z,5.07
2024-04-10T04:30:58.312Z,5.57
2024-04-10T04:33:26.025Z,4.57
2024-04-10T04:35:53.850Z,4.35
2024-04-10T04:38:21.597Z,5.40
2024-04-10T04:40:49.680Z,6.28
2024-04-10T04:43:17.167Z,5.72
2024-04-10T04:45:44.919Z,5.30
2024-04-10T04:48:12.847Z,5.50
2024-04-10T04:50:44.292Z,5.60
2024-04-10T04:53:12.772Z,4.65
2024-04-10T04:55:41.787Z,4.50
2024-04-10T04:58:09.603Z,4.40
2024-04-10T05:00:37.508Z,4.20
2024-04-10T05:03:05.364Z,4.47
2024-04-10T05:05:34.906Z,4.07
2024-04-10T05:08:02.434Z,4.25
2024-04-10T05:10:30.702Z,4.35
2024-04-10T05:12:58.982Z,4.40
2024-04-10T05:15:26.782Z,4.18
2024-04-10T05:17:54.281Z,4.10
2024-04-10T05:20:22.158Z,4.20
2024-04-10T05:22:49.957Z,4.18
2024-04-10T05:25:17.734Z,4.53
2024-04-10T05:27:45.119Z,3.60
2024-04-10T05:30:14.276Z,3.95
2024-04-10T05:32:42.821Z,3.50
2024-04-10T05:35:13.097Z,2.85
2024-04-10T05:37:41.403Z,3.38
2024-04-10T05:40:14.725Z,3.63
2024-04-10T05:42:43.298Z,3.83
2024-04-10T05:45:12.695Z,3.88
2024-04-10T05:47:42.343Z,4.45
2024-04-10T05:50:11.865Z,3.63
2024-04-10T05:52:42.432Z,3.30
2024-04-10T05:55:11.111Z,4.20
2024-04-10T05:57:38.613Z,4.78
2024-04-10T06:00:08.820Z,4.00
2024-04-10T06:02:40.535Z,4.57
2024-04-10T06:05:10.240Z,4.50
2024-04-10T06:07:39.102Z,4.53
2024-04-10T06:10:07.284Z,4.10
2024-04-10T06:12:34.744Z,4.15
2024-04-10T06:15:02.697Z,3.58
2024-04-10T06:17:30.722Z,3.83
2024-04-10T06:19:58.950Z,3.85
2024-04-10T06:22:26.369Z,3.60
2024-04-10T06:24:54.186Z,3.72
2024-04-10T06:27:21.769Z,3.45
2024-04-10T06:29:49.612Z,3.25
2024-04-10T06:32:17.737Z,3.22
2024-04-10T06:34:45.762Z,3.50
2024-04-10T06:37:14.306Z,4.03
2024-04-10T06:39:42.136Z,3.83
2024-04-10T06:42:09.545Z,3.00
2024-04-10T06:44:37.630Z,3.08
2024-04-10T06:47:05.543Z,3.08
2024-04-10T06:49:33.657Z,3.20
2024-04-10T06:52:01.353Z,2.65
2024-04-10T06:54:29.156Z,3.20
2024-04-10T06:56:56.703Z,3.10
2024-04-10T06:59:24.529Z,3.35
2024-04-10T07:01:52.910Z,3.25
2024-04-10T07:04:21.612Z,2.88
2024-04-10T07:06:50.680Z,2.90
2024-04-10T07:09:18.423Z,2.80
2024-04-10T07:11:46.149Z,2.78
2024-04-10T07:14:14.714Z,2.60
2024-04-10T07:16:43.600Z,3.10
2024-04-10T07:19:11.455Z,2.70
2024-04-10T07:21:38.955Z,2.80
2024-04-10T07:24:07.528Z,2.70
2024-04-10T07:26:34.964Z,2.80
2024-04-10T07:29:05.051Z,2.60
2024-04-10T07:31:34.155Z,2.58
2024-04-10T07:34:03.357Z,2.90
2024-04-10T07:36:39.245Z,2.53
2024-04-10T07:39:09.700Z,2.40
2024-04-10T07:41:39.539Z,2.60
2024-04-10T07:44:09.957Z,2.70
2024-04-10T07:46:37.677Z,2.40
2024-04-10T07:49:07.846Z,2.20
2024-04-10T07:51:35.916Z,2.70
2024-04-10T07:54:03.640Z,2.70
2024-04-10T07:56:31.174Z,2.47
2024-04-10T07:59:00.160Z,2.13
2024-04-10T08:01:27.760Z,2.40
2024-04-10T08:03:55.924Z,2.40
2024-04-10T08:06:23.594Z,2.20
2024-04-10T08:08:51.617Z,2.40
2024-04-10T08:11:19.682Z,2.00
2024-04-10T08:13:47.722Z,2.40
2024-04-10T08:16:17.040Z,2.58
2024-04-10T08:18:46.997Z,2.72
2024-04-10T08:21:16.206Z,2.53
2024-04-10T08:23:45.912Z,2.25
2024-04-10T08:26:21.766Z,2.47
2024-04-10T08:28:54.725Z,2.33
2024-04-10T08:31:28.270Z,2.50
2024-04-10T08:33:56.342Z,2.45
2024-04-10T08:36:25.928Z,2.30
2024-04-10T08:38:54.263Z,3.00
2024-04-10T08:41:23.247Z,2.60
2024-04-10T08:43:53.280Z,2.50
2024-04-10T08:46:23.665Z,2.40
2024-04-10T08:48:56.352Z,2.78
2024-04-10T08:51:25.015Z,2.88
2024-04-10T08:53:56.437Z,2.85
2024-04-10T08:56:23.782Z,2.60
2024-04-10T08:58:51.787Z,2.58
2024-04-10T09:01:26.795Z,3.13
2024-04-10T09:03:54.734Z,3.10
2024-04-10T09:06:22.484Z,2.80
2024-04-10T09:09:07.464Z,2.85
2024-04-10T09:11:35.715Z,3.25
2024-04-10T09:14:08.517Z,3.60
2024-04-10T09:16:36.972Z,2.60
2024-04-10T09:19:19.690Z,3.28
2024-04-10T09:22:01.095Z,2.90
2024-04-10T09:24:30.740Z,3.15
2024-04-10T09:27:00.092Z,3.17
2024-04-10T09:29:31.953Z,3.10
2024-04-10T09:32:06.631Z,3.10
2024-04-10T09:34:37.352Z,3.00
2024-04-10T09:37:09.031Z,2.92
2024-04-10T09:39:37.187Z,3.00
2024-04-10T09:42:10.979Z,3.03
2024-04-10T09:44:41.830Z,2.60
2024-04-10T09:47:10.386Z,3.10
2024-04-10T09:49:44.040Z,2.65
2024-04-10T09:52:14.842Z,2.92
2024-04-10T09:54:44.698Z,2.83
2024-04-10T09:57:13.550Z,2.92
2024-04-10T09:59:45.469Z,2.97
2024-04-10T10:02:19.843Z,2.63
2024-04-10T10:04:48.667Z,3.05
2024-04-10T10:07:26.248Z,2.80
2024-04-10T10:10:07.219Z,2.88
2024-04-10T10:12:34.862Z,2.88
2024-04-10T10:15:09.948Z,2.80
2024-04-10T10:17:50.029Z,2.90
2024-04-10T10:20:25.750Z,3.13
2024-04-10T10:23:10.413Z,2.70
2024-04-10T10:25:40.790Z,2.60
2024-04-10T10:28:10.080Z,2.75
2024-04-10T10:30:39.570Z,2.90
2024-04-10T10:33:08.880Z,2.50
2024-04-10T10:35:37.134Z,3.10
2024-04-10T10:38:07.587Z,2.70
2024-04-10T10:40:36.423Z,3.85
2024-04-10T10:43:09.242Z,2.85
2024-04-10T10:45:37.716Z,3.10
2024-04-10T10:48:06.396Z,3.78
2024-04-10T10:50:35.545Z,2.90
2024-04-10T10:53:03.440Z,3.00
2024-04-10T10:55:31.339Z,2.50
2024-04-10T10:58:02.779Z,2.40
2024-04-10T11:00:32.927Z,2.55
2024-04-10T11:03:16.577Z,2.97
2024-04-10T11:05:52.374Z,2.88
2024-04-10T11:08:26.300Z,2.80
2024-04-10T11:10:54.885Z,3.28
2024-04-10T11:13:23.016Z,2.83
2024-04-10T11:15:51.397Z,2.97
2024-04-10T11:18:22.513Z,3.05
2024-04-10T11:20:52.089Z,2.50
2024-04-10T11:23:21.148Z,2.53
2024-04-10T11:25:49.156Z,2.63
2024-04-10T11:28:16.620Z,2.75
2024-04-10T11:30:44.441Z,2.95
2024-04-10T11:33:12.001Z,2.97
2024-04-10T11:35:41.149Z,2.85
2024-04-10T11:38:09.506Z,3.00
2024-04-10T11:40:37.440Z,3.08
2024-04-10T11:43:05.305Z,3.67
2024-04-10T11:45:33.478Z,3.28
2024-04-10T11:48:01.689Z,3.60
2024-04-10T11:50:30.123Z,3.70
2024-04-10T11:52:57.677Z,3.60
2024-04-10T11:55:26.986Z,3.83
2024-04-10T11:57:54.452Z,3.30
2024-04-10T12:00:22.334Z,3.20
2024-04-10T12:02:49.923Z,3.58
2024-04-10T12:05:18.119Z,3.88
2024-04-10T12:07:47.415Z,3.60
2024-04-10T12:10:15.254Z,3.50
2024-04-10T12:12:44.767Z,3.47
2024-04-10T12:15:12.584Z,3.65
2024-04-10T12:17:40.131Z,3.40
2024-04-10T12:20:10.893Z,3.15
2024-04-10T12:22:38.628Z,3.17
2024-04-10T12:25:06.571Z,3.30
2024-04-10T12:27:33.960Z,3.20
2024-04-10T12:30:02.012Z,3.75
2024-04-10T12:32:29.894Z,3.00
2024-04-10T12:35:20.990Z,3.47
2024-04-10T12:38:07.508Z,3.47
2024-04-10T12:40:37.470Z,3.58
2024-04-10T12:43:05.365Z,3.13
2024-04-10T12:45:33.805Z,3.50
2024-04-10T12:48:01.784Z,3.67
2024-04-10T12:50:29.884Z,3.42
2024-04-10T12:52:57.297Z,3.75
2024-04-10T12:55:25.101Z,3.83
2024-04-10T12:57:52.500Z,3.88
2024-04-10T13:00:20.422Z,3.92
2024-04-10T13:02:48.988Z,4.00
2024-04-10T13:05:17.189Z,3.40
2024-04-10T13:07:44.734Z,3.63
2024-04-10T13:10:13.356Z,3.10
2024-04-10T13:12:40.836Z,4.30
2024-04-10T13:15:08.814Z,3.58
2024-04-10T13:17:36.382Z,3.90
2024-04-10T13:20:04.688Z,3.50
2024-04-10T13:22:32.662Z,3.50
2024-04-10T13:25:00.444Z,4.00
2024-04-10T13:27:28.126Z,3.83
2024-04-10T13:29:56.202Z,3.30
2024-04-10T13:32:24.157Z,3.50
2024-04-10T13:34:52.764Z,3.20
2024-04-10T13:37:30.204Z,3.20
2024-04-10T13:40:02.261Z,3.08
2024-04-10T13:42:29.695Z,2.80
2024-04-10T13:44:57.718Z,3.10
2024-04-10T13:47:25.363Z,3.03
2024-04-10T13:49:53.369Z,2.67
2024-04-10T13:52:20.780Z,3.25
2024-04-10T13:54:48.806Z,2.80
2024-04-10T13:57:18.452Z,3.00
2024-04-10T14:32:43.930Z,2.42
2024-04-10T14:35:11.905Z,2.67
2024-04-10T14:37:41.956Z,2.25
2024-04-10T14:42:37.635Z,2.70
2024-04-10T14:45:11.917Z,2.42
2024-04-10T14:47:39.721Z,2.55
2024-04-10T14:50:08.544Z,2.83
2024-04-10T14:52:37.802Z,2.90
2024-04-10T14:55:06.855Z,2.50
2024-04-10T14:57:36.607Z,2.45
2024-04-10T15:00:06.939Z,2.97
2024-04-10T15:02:34.571Z,2.50
2024-04-10T15:05:02.886Z,2.58
2024-04-10T15:07:30.400Z,2.75
2024-04-10T15:09:58.285Z,2.78
2024-04-10T15:12:26.017Z,2.63
2024-04-10T15:14:54.092Z,3.55
2024-04-10T15:17:22.078Z,2.60
2024-04-10T15:19:49.905Z,3.03
2024-04-10T15:22:17.352Z,3.30
2024-04-10T15:24:45.241Z,3.10
2024-04-10T15:27:12.780Z,3.10
2024-04-10T15:29:40.721Z,3.05
2024-04-10T15:32:08.244Z,3.35
2024-04-10T15:34:36.374Z,3.63
2024-04-10T15:37:03.984Z,3.20
2024-04-10T15:39:31.775Z,2.85
2024-04-10T15:42:00.075Z,3.15
2024-04-10T15:44:28.229Z,2.92
2024-04-10T15:46:55.670Z,3.35
2024-04-10T15:49:23.525Z,3.63
2024-04-10T15:51:51.009Z,3.22
2024-04-10T15:54:18.815Z,3.22
2024-04-10T15:56:47.253Z,3.30
2024-04-10T15:59:15.341Z,3.10
2024-04-10T16:01:42.766Z,3.42
2024-04-10T16:04:10.576Z,2.80
2024-04-10T16:06:38.001Z,2.53
2024-04-10T16:09:09.906Z,2.92
2024-04-10T16:11:41.540Z,3.17
2024-04-10T16:14:09.818Z,2.72
2024-04-10T16:16:37.273Z,2.50
2024-04-10T16:19:05.226Z,2.50
2024-04-10T16:21:32.715Z,2.90
2024-04-10T16:24:00.571Z,2.58
2024-04-10T16:26:31.692Z,2.70
2024-04-10T16:29:01.208Z,2.97
2024-04-10T16:31:29.730Z,3.38
2024-04-10T16:33:58.929Z,3.10
2024-04-10T16:36:26.999Z,3.17
2024-04-10T16:38:54.864Z,3.50
2024-04-10T16:41:22.613Z,3.80
2024-04-10T16:43:50.764Z,3.67
2024-04-10T16:46:18.323Z,4.18
2024-04-10T16:48:46.567Z,3.05
2024-04-10T16:51:14.170Z,3.13
2024-04-10T16:53:42.090Z,2.55
2024-04-10T16:56:17.406Z,3.08
2024-04-10T16:58:45.667Z,2.63
2024-04-10T17:01:14.966Z,2.50
2024-04-10T17:03:44.341Z,2.72
2024-04-10T17:06:12.264Z,3.35
2024-04-10T17:08:40.495Z,3.00
2024-04-10T17:11:15.061Z,2.63
2024-04-10T17:13:43.015Z,2.85
2024-04-10T17:16:11.716Z,3.58
2024-04-10T17:18:59.606Z,3.00
2024-04-10T17:22:06.821Z,3.10
2024-04-10T17:24:34.643Z,2.97
2024-04-10T17:27:02.345Z,2.88
2024-04-10T17:29:30.780Z,3.13
2024-04-10T17:31:58.235Z,3.20
2024-04-10T17:34:26.236Z,3.22
2024-04-10T17:36:56.926Z,3.95
2024-04-10T17:39:27.893Z,3.90
2024-04-10T17:41:55.457Z,3.58
2024-04-10T17:44:23.547Z,3.70
2024-04-10T17:46:52.860Z,3.97
2024-04-10T17:49:20.950Z,3.40
2024-04-10T17:51:48.843Z,3.10
2024-04-10T17:54:16.635Z,3.10
2024-04-10T17:56:44.031Z,3.05
2024-04-10T17:59:11.772Z,3.90
2024-04-10T18:01:40.399Z,4.13
2024-04-10T18:04:08.402Z,4.00
2024-04-10T18:06:39.315Z,4.80
2024-04-10T18:09:07.274Z,4.30
2024-04-10T18:11:34.815Z,4.63
2024-04-10T18:14:02.616Z,4.50
2024-04-10T18:16:30.005Z,3.50
2024-04-10T18:18:58.556Z,3.40
2024-04-10T18:21:26.392Z,4.00
2024-04-10T18:23:54.726Z,3.75
2024-04-10T18:26:22.298Z,3.50
2024-04-10T18:28:50.148Z,3.38
2024-04-10T18:31:17.567Z,3.17
2024-04-10T18:33:45.765Z,2.70
2024-04-10T18:36:13.319Z,2.80
2024-04-10T18:38:42.147Z,3.03
2024-04-10T18:41:16.791Z,2.83
2024-04-10T18:43:44.655Z,2.90
2024-04-10T18:46:12.113Z,2.63
2024-04-10T18:48:40.469Z,3.40
2024-04-10T18:51:17.455Z,3.08
2024-04-10T18:53:47.442Z,3.78
2024-04-10T18:56:15.076Z,3.33
2024-04-10T18:58:46.685Z,3.58
2024-04-10T19:01:15.035Z,3.70
2024-04-10T19:03:44.276Z,4.10
2024-04-10T19:06:14.785Z,4.03
2024-04-10T19:08:44.089Z,3.83
2024-04-10T19:11:13.422Z,4.55
2024-04-10T19:13:42.234Z,4.07
2024-04-10T19:16:09.919Z,3.83
2024-04-10T19:18:37.940Z,3.50
2024-04-10T19:21:06.252Z,4.22
2024-04-10T19:23:34.978Z,4.03
2024-04-10T19:26:03.349Z,3.83
2024-04-10T19:28:35.705Z,4.05
2024-04-10T19:31:04.534Z,3.83
2024-04-10T19:33:35.122Z,4.28
2024-04-10T19:36:07.447Z,4.63
2024-04-10T19:38:35.453Z,4.43
2024-04-10T19:41:06.562Z,5.05
2024-04-10T19:43:35.717Z,4.28
2024-04-10T19:46:08.313Z,4.65
2024-04-10T19:48:36.516Z,5.03
2024-04-10T19:51:06.204Z,4.80
2024-04-10T19:53:35.244Z,4.15
2024-04-10T19:56:10.984Z,4.43
2024-04-10T19:58:41.305Z,4.55
2024-04-10T20:01:11.339Z,4.45
2024-04-10T20:03:43.847Z,4.57
2024-04-10T20:06:12.769Z,4.97
2024-04-10T20:08:41.588Z,5.25
2024-04-10T20:11:10.716Z,5.43
2024-04-10T20:13:39.390Z,4.88
2024-04-10T20:16:11.700Z,5.55
2024-04-10T20:18:41.819Z,5.13
2024-04-10T20:21:12.107Z,5.30
2024-04-10T20:23:40.099Z,5.18
2024-04-10T20:26:08.341Z,5.13
2024-04-10T20:28:36.570Z,5.20
2024-04-10T20:31:05.710Z,5.07
2024-04-10T20:33:34.463Z,4.93
2024-04-10T20:36:02.851Z,5.15
2024-04-10T20:38:30.704Z,5.22
2024-04-10T20:41:06.125Z,5.20
2024-04-10T20:43:35.056Z,5.55
2024-04-10T20:46:06.702Z,6.38
2024-04-10T20:48:35.823Z,5.93
2024-04-10T20:51:21.465Z,6.28
2024-04-10T20:53:50.138Z,5.97
2024-04-10T20:56:20.288Z,5.85
2024-04-10T20:58:48.899Z,5.78
2024-04-10T21:01:18.170Z,6.88
2024-04-10T21:03:47.960Z,5.78
2024-04-10T21:06:17.655Z,6.10
2024-04-10T21:09:06.724Z,6.53
2024-04-10T21:11:55.478Z,6.95
2024-04-10T21:14:43.069Z,6.55
2024-04-10T21:17:29.444Z,5.88
2024-04-10T21:20:16.137Z,5.70
2024-04-10T21:23:02.456Z,5.82
2024-04-10T21:25:50.813Z,6.15
2024-04-10T21:28:37.576Z,5.70
2024-04-10T21:31:26.206Z,6.18
2024-04-10T21:34:13.072Z,6.07
2024-04-10T21:36:59.828Z,5.75
2024-04-10T21:39:46.341Z,5.60
2024-04-10T21:42:33.012Z,6.38
2024-04-10T21:45:19.396Z,5.70
2024-04-10T21:48:06.227Z,5.47
2024-04-10T21:50:52.456Z,5.90
2024-04-10T21:53:38.974Z,6.30
2024-04-10T21:56:27.599Z,5.80
2024-04-10T21:59:15.649Z,5.95
2024-04-10T22:02:06.719Z,5.38
2024-04-10T22:04:58.013Z,6.15
2024-04-10T22:07:46.240Z,6.60
2024-04-10T22:10:14.344Z,5.93
2024-04-10T22:12:42.034Z,6.03
2024-04-10T22:15:11.931Z,6.38
2024-04-10T22:18:00.409Z,5.78
2024-04-10T22:20:48.876Z,5.75
2024-04-10T22:23:35.180Z,5.82
2024-04-10T22:26:02.988Z,5.45
2024-04-10T22:28:32.059Z,6.20
2024-04-10T22:30:59.845Z,6.05
2024-04-10T22:33:27.520Z,5.97
2024-04-10T22:36:00.000Z,5.82
2024-04-10T22:38:28.146Z,5.72
2024-04-10T22:40:56.477Z,6.22
2024-04-10T22:43:24.363Z,6.13
2024-04-10T22:45:52.495Z,5.80
2024-04-10T22:48:20.059Z,6.70
2024-04-10T22:50:48.205Z,6.40
2024-04-10T22:53:16.028Z,6.35
2024-04-10T22:55:43.757Z,7.18
2024-04-10T22:58:11.111Z,8.98
2024-04-10T23:00:39.233Z,9.63
2024-04-10T23:03:07.409Z,10.50
2024-04-10T23:08:27.571Z,7.47
2024-04-10T23:10:53.674Z,7.47
2024-04-10T23:13:21.090Z,7.43
2024-04-10T23:15:48.882Z,7.78
2024-04-10T23:18:25.192Z,7.10
2024-04-10T23:21:03.909Z,7.07
2024-04-10T23:23:31.355Z,6.90
2024-04-10T23:25:59.121Z,6.72
2024-04-10T23:28:26.579Z,6.72
2024-04-10T23:30:55.590Z,6.78
2024-04-10T23:33:23.317Z,6.13
2024-04-10T23:35:51.394Z,6.22
2024-04-10T23:38:19.089Z,7.22
2024-04-10T23:40:46.844Z,6.75
2024-04-10T23:43:14.222Z,6.82
2024-04-10T23:45:43.132Z,7.05
2024-04-10T23:48:11.555Z,7.05
2024-04-10T23:50:39.428Z,7.13
2024-04-10T23:53:06.844Z,7.22
2024-04-10T23:55:34.679Z,6.72
2024-04-10T23:58:02.062Z,6.85
